To NAV CANADA Home Page Login to a new session Search on AWWS site Disclaimer Vers la page française équivalente Tips FAQ What's new on the site To the Forecasts and Observations / NOTAM section To "File a Flight Plan" website Publications and other links Update of the User's profile FIC Telephone Numbers My Weather Data Folder Route Weather Data Regional Weather Data Local Weather Data To the Forecasts and Observations / NOTAM section
Request Generated 11/13/2018 at 18:21:47 UTC . Weather information available at that time is displayed.

METAR/TAF

NAIN/NL    

METAR CYDP 131800Z 29004KT 15SM -SHSN OVC025 OVC220 M04/M10 A3000 RMK SC8CI1 CI TR SLP161=
METAR CYDP 131700Z 27004KT 15SM -SHSN OVC025 M04/M09 A3001 RMK SC8 SLP163=
METAR CYDP 131600Z 28011KT 15SM -SHSN OVC025 M04/M09 A3001 RMK SC8 SLP164=

TAF CYDP 131338Z 1314/1324 29010KT P6SM BKN025 TEMPO 1314/1320 BKN020
FM132000 27012KT P6SM SCT080
RMK NXT FCST BY 132000Z=
Your time UTC time
Weather data provided by Environment Canada and NAV CANADA